sensor_id;sensor_type;location;lat;lon;timestamp;temperature;humidity
28969;DHT22;16076;51.194;6.642;2022-10-26T00:01:39;13.10;99.90
28969;DHT22;16076;51.194;6.642;2022-10-26T00:04:05;13.10;99.90
28969;DHT22;16076;51.194;6.642;2022-10-26T00:06:31;13.20;99.90
28969;DHT22;16076;51.194;6.642;2022-10-26T00:08:57;13.30;99.90
28969;DHT22;16076;51.194;6.642;2022-10-26T00:11:25;13.30;99.90
28969;DHT22;16076;51.194;6.642;2022-10-26T00:13:51;13.40;99.90
28969;DHT22;16076;51.194;6.642;2022-10-26T00:16:20;13.40;99.90
28969;DHT22;16076;51.194;6.642;2022-10-26T00:18:47;13.50;99.90
28969;DHT22;16076;51.194;6.642;2022-10-26T00:21:13;13.50;99.90
28969;DHT22;16076;51.194;6.642;2022-10-26T00:23:39;13.50;99.90
28969;DHT22;16076;51.194;6.642;2022-10-26T00:26:05;13.60;99.90
28969;DHT22;16076;51.194;6.642;2022-10-26T00:28:34;13.60;99.90
28969;DHT22;16076;51.194;6.642;2022-10-26T00:31:13;13.60;99.90
28969;DHT22;16076;51.194;6.642;2022-10-26T00:33:39;13.70;99.90
28969;DHT22;16076;51.194;6.642;2022-10-26T00:36:07;13.60;99.90
28969;DHT22;16076;51.194;6.642;2022-10-26T00:38:34;13.60;99.90
28969;DHT22;16076;51.194;6.642;2022-10-26T00:41:00;13.70;99.90
28969;DHT22;16076;51.194;6.642;2022-10-26T00:45:54;13.60;99.90
28969;DHT22;16076;51.194;6.642;2022-10-26T00:48:33;13.60;99.90
28969;DHT22;16076;51.194;6.642;2022-10-26T00:51:03;13.60;99.90
28969;DHT22;16076;51.194;6.642;2022-10-26T00:53:32;13.60;99.90
28969;DHT22;16076;51.194;6.642;2022-10-26T00:55:58;13.60;99.90
28969;DHT22;16076;51.194;6.642;2022-10-26T00:58:24;13.60;99.90
28969;DHT22;16076;51.194;6.642;2022-10-26T01:00:51;13.60;99.90
28969;DHT22;16076;51.194;6.642;2022-10-26T01:03:17;13.70;99.90
28969;DHT22;16076;51.194;6.642;2022-10-26T01:05:45;13.70;99.90
28969;DHT22;16076;51.194;6.642;2022-10-26T01:08:14;13.70;99.90
28969;DHT22;16076;51.194;6.642;2022-10-26T01:10:41;13.60;99.90
28969;DHT22;16076;51.194;6.642;2022-10-26T01:13:07;13.60;99.90
28969;DHT22;16076;51.194;6.642;2022-10-26T01:23:55;13.80;99.90
28969;DHT22;16076;51.194;6.642;2022-10-26T01:26:37;13.80;99.90
28969;DHT22;16076;51.194;6.642;2022-10-26T01:32:03;13.80;99.90
28969;DHT22;16076;51.194;6.642;2022-10-26T01:34:45;13.80;99.90
28969;DHT22;16076;51.194;6.642;2022-10-26T01:37:23;13.90;99.90
28969;DHT22;16076;51.194;6.642;2022-10-26T01:40:08;13.90;99.90
28969;DHT22;16076;51.194;6.642;2022-10-26T01:42:38;14.00;99.90
28969;DHT22;16076;51.194;6.642;2022-10-26T01:45:08;14.00;99.90
28969;DHT22;16076;51.194;6.642;2022-10-26T01:47:37;14.00;99.90
28969;DHT22;16076;51.194;6.642;2022-10-26T01:50:08;14.10;99.90
28969;DHT22;16076;51.194;6.642;2022-10-26T01:52:34;14.00;99.90
28969;DHT22;16076;51.194;6.642;2022-10-26T01:57:53;14.00;99.90
28969;DHT22;16076;51.194;6.642;2022-10-26T02:00:21;14.00;99.90
28969;DHT22;16076;51.194;6.642;2022-10-26T02:05:44;14.00;99.90
28969;DHT22;16076;51.194;6.642;2022-10-26T02:16:29;14.00;99.90
28969;DHT22;16076;51.194;6.642;2022-10-26T02:19:08;14.10;99.90
28969;DHT22;16076;51.194;6.642;2022-10-26T02:21:42;14.10;99.90
28969;DHT22;16076;51.194;6.642;2022-10-26T02:24:11;14.10;99.90
28969;DHT22;16076;51.194;6.642;2022-10-26T02:26:40;14.10;99.90
28969;DHT22;16076;51.194;6.642;2022-10-26T02:29:09;14.10;99.90
28969;DHT22;16076;51.194;6.642;2022-10-26T02:31:37;14.10;99.90
28969;DHT22;16076;51.194;6.642;2022-10-26T02:34:06;14.10;99.90
28969;DHT22;16076;51.194;6.642;2022-10-26T02:36:40;14.10;99.90
28969;DHT22;16076;51.194;6.642;2022-10-26T02:39:07;14.10;99.90
28969;DHT22;16076;51.194;6.642;2022-10-26T02:41:36;14.10;99.90
28969;DHT22;16076;51.194;6.642;2022-10-26T02:44:23;14.20;99.90
28969;DHT22;16076;51.194;6.642;2022-10-26T02:46:53;14.10;99.90
28969;DHT22;16076;51.194;6.642;2022-10-26T02:49:20;14.10;99.90
28969;DHT22;16076;51.194;6.642;2022-10-26T02:51:49;14.20;99.90
28969;DHT22;16076;51.194;6.642;2022-10-26T02:54:26;14.20;99.90
28969;DHT22;16076;51.194;6.642;2022-10-26T02:57:07;14.20;99.90
28969;DHT22;16076;51.194;6.642;2022-10-26T02:59:36;14.20;99.90
28969;DHT22;16076;51.194;6.642;2022-10-26T03:02:04;14.20;99.90
28969;DHT22;16076;51.194;6.642;2022-10-26T03:04:31;14.20;99.90
28969;DHT22;16076;51.194;6.642;2022-10-26T03:06:57;14.30;99.90
28969;DHT22;16076;51.194;6.642;2022-10-26T03:09:23;14.20;99.90
28969;DHT22;16076;51.194;6.642;2022-10-26T03:11:49;14.20;99.90
28969;DHT22;16076;51.194;6.642;2022-10-26T03:14:15;14.20;99.90
28969;DHT22;16076;51.194;6.642;2022-10-26T03:16:41;14.30;99.90
28969;DHT22;16076;51.194;6.642;2022-10-26T03:19:07;14.30;99.90
28969;DHT22;16076;51.194;6.642;2022-10-26T03:21:33;14.30;99.90
28969;DHT22;16076;51.194;6.642;2022-10-26T03:23:59;14.20;99.90
28969;DHT22;16076;51.194;6.642;2022-10-26T03:26:27;14.20;99.90
28969;DHT22;16076;51.194;6.642;2022-10-26T03:28:53;14.20;99.90
28969;DHT22;16076;51.194;6.642;2022-10-26T03:31:18;14.20;99.90
28969;DHT22;16076;51.194;6.642;2022-10-26T03:33:44;14.20;99.90
28969;DHT22;16076;51.194;6.642;2022-10-26T03:36:10;14.30;99.90
28969;DHT22;16076;51.194;6.642;2022-10-26T03:38:36;14.30;99.90
28969;DHT22;16076;51.194;6.642;2022-10-26T03:41:02;14.40;99.90
28969;DHT22;16076;51.194;6.642;2022-10-26T03:43:27;14.40;99.90
28969;DHT22;16076;51.194;6.642;2022-10-26T03:45:55;14.50;99.90
28969;DHT22;16076;51.194;6.642;2022-10-26T03:48:23;14.50;99.90
28969;DHT22;16076;51.194;6.642;2022-10-26T03:50:49;14.50;99.90
28969;DHT22;16076;51.194;6.642;2022-10-26T03:53:17;14.50;99.90
28969;DHT22;16076;51.194;6.642;2022-10-26T03:55:44;14.60;99.90
28969;DHT22;16076;51.194;6.642;2022-10-26T03:58:09;14.60;99.90
28969;DHT22;16076;51.194;6.642;2022-10-26T04:00:35;14.60;99.90
28969;DHT22;16076;51.194;6.642;2022-10-26T04:03:01;14.70;99.90
28969;DHT22;16076;51.194;6.642;2022-10-26T04:05:28;14.80;99.90
28969;DHT22;16076;51.194;6.642;2022-10-26T04:08:01;14.70;99.90
28969;DHT22;16076;51.194;6.642;2022-10-26T04:10:30;14.80;99.90
28969;DHT22;16076;51.194;6.642;2022-10-26T04:12:56;14.70;99.90
28969;DHT22;16076;51.194;6.642;2022-10-26T04:15:26;14.60;99.90
28969;DHT22;16076;51.194;6.642;2022-10-26T04:17:57;14.70;99.90
28969;DHT22;16076;51.194;6.642;2022-10-26T04:20:26;14.70;99.90
28969;DHT22;16076;51.194;6.642;2022-10-26T04:23:04;14.80;99.90
28969;DHT22;16076;51.194;6.642;2022-10-26T04:25:31;14.90;99.90
28969;DHT22;16076;51.194;6.642;2022-10-26T04:27:58;14.80;99.90
28969;DHT22;16076;51.194;6.642;2022-10-26T04:30:24;14.80;99.90
28969;DHT22;16076;51.194;6.642;2022-10-26T04:32:50;14.80;99.90
28969;DHT22;16076;51.194;6.642;2022-10-26T04:35:16;14.70;99.90
28969;DHT22;16076;51.194;6.642;2022-10-26T04:37:42;14.80;99.90
28969;DHT22;16076;51.194;6.642;2022-10-26T04:40:08;14.70;99.90
28969;DHT22;16076;51.194;6.642;2022-10-26T04:42:45;14.70;99.90
28969;DHT22;16076;51.194;6.642;2022-10-26T04:45:14;14.70;99.90
28969;DHT22;16076;51.194;6.642;2022-10-26T04:47:41;14.60;99.90
28969;DHT22;16076;51.194;6.642;2022-10-26T04:50:08;14.60;99.90
28969;DHT22;16076;51.194;6.642;2022-10-26T04:52:35;14.60;99.90
28969;DHT22;16076;51.194;6.642;2022-10-26T04:55:01;14.60;99.90
28969;DHT22;16076;51.194;6.642;2022-10-26T04:57:33;14.60;99.90
28969;DHT22;16076;51.194;6.642;2022-10-26T05:00:00;14.60;99.90
28969;DHT22;16076;51.194;6.642;2022-10-26T05:02:27;14.70;99.90
28969;DHT22;16076;51.194;6.642;2022-10-26T05:04:56;14.80;99.90
28969;DHT22;16076;51.194;6.642;2022-10-26T05:07:24;14.80;99.90
28969;DHT22;16076;51.194;6.642;2022-10-26T05:09:50;14.80;99.90
28969;DHT22;16076;51.194;6.642;2022-10-26T05:12:16;14.80;99.90
28969;DHT22;16076;51.194;6.642;2022-10-26T05:14:42;14.80;99.90
28969;DHT22;16076;51.194;6.642;2022-10-26T05:17:07;14.80;99.90
28969;DHT22;16076;51.194;6.642;2022-10-26T05:19:33;14.80;99.90
28969;DHT22;16076;51.194;6.642;2022-10-26T05:21:59;14.80;99.90
28969;DHT22;16076;51.194;6.642;2022-10-26T05:24:25;14.80;99.90
28969;DHT22;16076;51.194;6.642;2022-10-26T05:26:53;14.80;99.90
28969;DHT22;16076;51.194;6.642;2022-10-26T05:29:19;14.90;99.90
28969;DHT22;16076;51.194;6.642;2022-10-26T05:31:45;15.00;99.90
28969;DHT22;16076;51.194;6.642;2022-10-26T05:34:10;15.00;99.90
28969;DHT22;16076;51.194;6.642;2022-10-26T05:36:36;14.90;99.90
28969;DHT22;16076;51.194;6.642;2022-10-26T05:39:02;15.00;99.90
28969;DHT22;16076;51.194;6.642;2022-10-26T05:41:28;15.00;99.90
28969;DHT22;16076;51.194;6.642;2022-10-26T05:43:57;15.00;99.90
28969;DHT22;16076;51.194;6.642;2022-10-26T05:46:23;14.90;99.90
28969;DHT22;16076;51.194;6.642;2022-10-26T05:48:51;15.00;99.90
28969;DHT22;16076;51.194;6.642;2022-10-26T05:51:17;15.00;99.90
28969;DHT22;16076;51.194;6.642;2022-10-26T05:53:43;14.90;99.90
28969;DHT22;16076;51.194;6.642;2022-10-26T05:56:33;15.10;99.90
28969;DHT22;16076;51.194;6.642;2022-10-26T05:58:59;15.00;99.90
28969;DHT22;16076;51.194;6.642;2022-10-26T06:06:53;15.10;99.90
28969;DHT22;16076;51.194;6.642;2022-10-26T06:09:20;15.10;99.90
28969;DHT22;16076;51.194;6.642;2022-10-26T06:11:48;15.10;99.90
28969;DHT22;16076;51.194;6.642;2022-10-26T06:14:14;15.10;99.90
28969;DHT22;16076;51.194;6.642;2022-10-26T06:22:22;15.10;99.90
28969;DHT22;16076;51.194;6.642;2022-10-26T06:30:32;15.20;99.90
28969;DHT22;16076;51.194;6.642;2022-10-26T06:32:58;15.10;99.90
28969;DHT22;16076;51.194;6.642;2022-10-26T06:37:59;15.20;99.90
28969;DHT22;16076;51.194;6.642;2022-10-26T06:40:31;15.10;99.90
28969;DHT22;16076;51.194;6.642;2022-10-26T06:42:58;15.10;99.90
28969;DHT22;16076;51.194;6.642;2022-10-26T06:45:24;15.10;99.90
28969;DHT22;16076;51.194;6.642;2022-10-26T06:47:56;15.20;99.90
28969;DHT22;16076;51.194;6.642;2022-10-26T06:50:53;15.10;99.90
28969;DHT22;16076;51.194;6.642;2022-10-26T06:56:20;15.10;99.90
28969;DHT22;16076;51.194;6.642;2022-10-26T06:58:48;15.10;99.90
28969;DHT22;16076;51.194;6.642;2022-10-26T07:01:14;15.10;99.90
28969;DHT22;16076;51.194;6.642;2022-10-26T07:03:41;15.00;99.90
28969;DHT22;16076;51.194;6.642;2022-10-26T07:06:07;15.00;99.90
28969;DHT22;16076;51.194;6.642;2022-10-26T07:08:34;15.10;99.90
28969;DHT22;16076;51.194;6.642;2022-10-26T07:11:00;15.20;99.90
28969;DHT22;16076;51.194;6.642;2022-10-26T07:13:26;15.20;99.90
28969;DHT22;16076;51.194;6.642;2022-10-26T07:15:51;15.30;99.90
28969;DHT22;16076;51.194;6.642;2022-10-26T07:18:17;15.30;99.90
28969;DHT22;16076;51.194;6.642;2022-10-26T07:20:43;15.40;99.90
28969;DHT22;16076;51.194;6.642;2022-10-26T07:23:09;15.50;99.90
28969;DHT22;16076;51.194;6.642;2022-10-26T07:25:36;15.70;99.90
28969;DHT22;16076;51.194;6.642;2022-10-26T07:28:08;15.80;99.90
28969;DHT22;16076;51.194;6.642;2022-10-26T07:30:35;15.90;99.90
28969;DHT22;16076;51.194;6.642;2022-10-26T07:33:07;16.10;99.90
28969;DHT22;16076;51.194;6.642;2022-10-26T07:35:33;16.20;99.90
28969;DHT22;16076;51.194;6.642;2022-10-26T07:38:00;16.30;99.90
28969;DHT22;16076;51.194;6.642;2022-10-26T07:40:26;16.30;99.90
28969;DHT22;16076;51.194;6.642;2022-10-26T07:42:55;16.30;99.90
28969;DHT22;16076;51.194;6.642;2022-10-26T07:45:22;16.20;99.90
28969;DHT22;16076;51.194;6.642;2022-10-26T07:47:52;16.10;99.90
28969;DHT22;16076;51.194;6.642;2022-10-26T07:50:17;16.00;99.90
28969;DHT22;16076;51.194;6.642;2022-10-26T07:52:43;15.90;99.90
28969;DHT22;16076;51.194;6.642;2022-10-26T07:55:10;15.80;99.90
28969;DHT22;16076;51.194;6.642;2022-10-26T07:57:38;15.90;99.90
28969;DHT22;16076;51.194;6.642;2022-10-26T08:00:06;16.00;99.90
28969;DHT22;16076;51.194;6.642;2022-10-26T08:02:32;16.20;99.90
28969;DHT22;16076;51.194;6.642;2022-10-26T08:05:02;16.20;99.90
28969;DHT22;16076;51.194;6.642;2022-10-26T08:07:28;16.10;99.90
28969;DHT22;16076;51.194;6.642;2022-10-26T08:09:57;16.20;99.90
28969;DHT22;16076;51.194;6.642;2022-10-26T08:12:25;16.10;99.90
28969;DHT22;16076;51.194;6.642;2022-10-26T08:14:50;16.20;99.90
28969;DHT22;16076;51.194;6.642;2022-10-26T08:17:16;16.30;99.90
28969;DHT22;16076;51.194;6.642;2022-10-26T08:19:46;16.20;99.90
28969;DHT22;16076;51.194;6.642;2022-10-26T08:22:12;16.30;99.90
28969;DHT22;16076;51.194;6.642;2022-10-26T08:24:40;16.50;99.90
28969;DHT22;16076;51.194;6.642;2022-10-26T08:27:08;16.50;99.90
28969;DHT22;16076;51.194;6.642;2022-10-26T08:29:34;16.50;99.90
28969;DHT22;16076;51.194;6.642;2022-10-26T08:32:00;16.60;99.90
28969;DHT22;16076;51.194;6.642;2022-10-26T08:34:28;16.50;99.90
28969;DHT22;16076;51.194;6.642;2022-10-26T08:36:54;16.50;99.90
28969;DHT22;16076;51.194;6.642;2022-10-26T08:39:20;16.50;99.90
28969;DHT22;16076;51.194;6.642;2022-10-26T08:41:46;16.40;99.90
28969;DHT22;16076;51.194;6.642;2022-10-26T08:44:26;16.40;99.90
28969;DHT22;16076;51.194;6.642;2022-10-26T08:47:06;16.30;99.90
28969;DHT22;16076;51.194;6.642;2022-10-26T08:50:10;16.40;99.90
28969;DHT22;16076;51.194;6.642;2022-10-26T08:52:46;16.40;99.90
28969;DHT22;16076;51.194;6.642;2022-10-26T08:55:21;16.50;99.90
28969;DHT22;16076;51.194;6.642;2022-10-26T08:57:50;16.70;99.90
28969;DHT22;16076;51.194;6.642;2022-10-26T09:00:19;17.00;99.90
28969;DHT22;16076;51.194;6.642;2022-10-26T09:02:52;17.30;99.90
28969;DHT22;16076;51.194;6.642;2022-10-26T09:05:27;17.50;99.90
28969;DHT22;16076;51.194;6.642;2022-10-26T09:11:05;17.60;99.90
28969;DHT22;16076;51.194;6.642;2022-10-26T09:25:25;18.00;99.90
28969;DHT22;16076;51.194;6.642;2022-10-26T09:27:55;18.10;99.90
28969;DHT22;16076;51.194;6.642;2022-10-26T09:30:24;18.20;99.90
28969;DHT22;16076;51.194;6.642;2022-10-26T09:33:30;18.10;99.90
28969;DHT22;16076;51.194;6.642;2022-10-26T09:38:28;18.20;99.90
28969;DHT22;16076;51.194;6.642;2022-10-26T09:41:34;18.30;99.90
28969;DHT22;16076;51.194;6.642;2022-10-26T09:44:11;18.40;99.90
28969;DHT22;16076;51.194;6.642;2022-10-26T09:49:24;18.50;99.90
28969;DHT22;16076;51.194;6.642;2022-10-26T09:51:55;18.50;99.90
28969;DHT22;16076;51.194;6.642;2022-10-26T09:54:23;18.50;99.90
28969;DHT22;16076;51.194;6.642;2022-10-26T09:56:52;18.50;99.90
28969;DHT22;16076;51.194;6.642;2022-10-26T09:59:21;18.50;99.90
28969;DHT22;16076;51.194;6.642;2022-10-26T10:01:48;18.60;99.90
28969;DHT22;16076;51.194;6.642;2022-10-26T10:09:25;18.90;99.90
28969;DHT22;16076;51.194;6.642;2022-10-26T10:11:57;18.90;99.90
28969;DHT22;16076;51.194;6.642;2022-10-26T10:14:30;19.10;99.90
28969;DHT22;16076;51.194;6.642;2022-10-26T10:16:59;19.10;99.90
28969;DHT22;16076;51.194;6.642;2022-10-26T10:19:27;19.30;99.90
28969;DHT22;16076;51.194;6.642;2022-10-26T10:21:59;19.40;99.90
28969;DHT22;16076;51.194;6.642;2022-10-26T10:24:35;19.40;99.90
28969;DHT22;16076;51.194;6.642;2022-10-26T10:27:15;19.40;99.90
28969;DHT22;16076;51.194;6.642;2022-10-26T10:29:44;19.50;99.90
28969;DHT22;16076;51.194;6.642;2022-10-26T10:32:15;19.50;99.90
28969;DHT22;16076;51.194;6.642;2022-10-26T10:34:43;19.60;99.90
28969;DHT22;16076;51.194;6.642;2022-10-26T10:37:30;19.70;99.90
28969;DHT22;16076;51.194;6.642;2022-10-26T10:40:13;19.80;99.90
28969;DHT22;16076;51.194;6.642;2022-10-26T10:42:41;19.90;99.90
28969;DHT22;16076;51.194;6.642;2022-10-26T10:45:25;19.90;99.90
28969;DHT22;16076;51.194;6.642;2022-10-26T10:50:31;19.90;99.90
28969;DHT22;16076;51.194;6.642;2022-10-26T11:07:29;20.50;99.90
28969;DHT22;16076;51.194;6.642;2022-10-26T11:10:00;20.50;99.90
28969;DHT22;16076;51.194;6.642;2022-10-26T11:12:34;20.60;99.90
28969;DHT22;16076;51.194;6.642;2022-10-26T11:15:07;20.60;99.90
28969;DHT22;16076;51.194;6.642;2022-10-26T11:18:11;20.70;99.90
28969;DHT22;16076;51.194;6.642;2022-10-26T11:20:44;20.80;99.90
28969;DHT22;16076;51.194;6.642;2022-10-26T11:23:17;20.80;99.90
28969;DHT22;16076;51.194;6.642;2022-10-26T11:30:49;20.90;99.90
28969;DHT22;16076;51.194;6.642;2022-10-26T11:33:26;20.90;99.90
28969;DHT22;16076;51.194;6.642;2022-10-26T11:36:06;21.00;99.90
28969;DHT22;16076;51.194;6.642;2022-10-26T11:47:27;21.10;99.90
28969;DHT22;16076;51.194;6.642;2022-10-26T11:50:31;21.10;99.90
28969;DHT22;16076;51.194;6.642;2022-10-26T11:53:08;21.20;99.90
28969;DHT22;16076;51.194;6.642;2022-10-26T11:55:35;21.30;99.90
28969;DHT22;16076;51.194;6.642;2022-10-26T11:58:04;21.30;99.90
28969;DHT22;16076;51.194;6.642;2022-10-26T12:00:43;21.30;99.90
28969;DHT22;16076;51.194;6.642;2022-10-26T12:03:16;21.40;99.90
28969;DHT22;16076;51.194;6.642;2022-10-26T12:05:50;21.40;99.90
28969;DHT22;16076;51.194;6.642;2022-10-26T12:08:32;21.40;99.90
28969;DHT22;16076;51.194;6.642;2022-10-26T12:11:31;21.40;99.90
28969;DHT22;16076;51.194;6.642;2022-10-26T12:14:04;21.40;99.90
28969;DHT22;16076;51.194;6.642;2022-10-26T12:17:05;21.50;99.90
28969;DHT22;16076;51.194;6.642;2022-10-26T12:22:15;21.50;99.90
28969;DHT22;16076;51.194;6.642;2022-10-26T12:25:03;21.70;99.90
28969;DHT22;16076;51.194;6.642;2022-10-26T12:35:37;21.70;99.90
28969;DHT22;16076;51.194;6.642;2022-10-26T12:43:46;21.60;99.90
28969;DHT22;16076;51.194;6.642;2022-10-26T12:48:56;21.70;99.90
28969;DHT22;16076;51.194;6.642;2022-10-26T12:56:54;21.60;99.90
28969;DHT22;16076;51.194;6.642;2022-10-26T12:59:39;21.60;99.90
28969;DHT22;16076;51.194;6.642;2022-10-26T13:07:35;21.60;99.90
28969;DHT22;16076;51.194;6.642;2022-10-26T13:12:54;21.70;99.90
28969;DHT22;16076;51.194;6.642;2022-10-26T13:15:30;21.70;99.90
28969;DHT22;16076;51.194;6.642;2022-10-26T13:18:13;21.80;99.90
28969;DHT22;16076;51.194;6.642;2022-10-26T13:20:52;21.80;99.90
28969;DHT22;16076;51.194;6.642;2022-10-26T13:23:25;21.80;99.90
28969;DHT22;16076;51.194;6.642;2022-10-26T13:26:16;21.80;99.90
28969;DHT22;16076;51.194;6.642;2022-10-26T13:34:19;21.80;99.90
28969;DHT22;16076;51.194;6.642;2022-10-26T13:37:20;21.80;99.90
28969;DHT22;16076;51.194;6.642;2022-10-26T13:39:49;21.70;99.90
28969;DHT22;16076;51.194;6.642;2022-10-26T13:42:23;21.70;99.90
28969;DHT22;16076;51.194;6.642;2022-10-26T13:49:53;21.80;99.90
28969;DHT22;16076;51.194;6.642;2022-10-26T13:52:37;21.70;99.90
28969;DHT22;16076;51.194;6.642;2022-10-26T14:03:41;21.80;99.90
28969;DHT22;16076;51.194;6.642;2022-10-26T14:08:40;21.70;99.90
28969;DHT22;16076;51.194;6.642;2022-10-26T14:11:13;21.70;99.90
28969;DHT22;16076;51.194;6.642;2022-10-26T14:13:40;21.70;99.90
28969;DHT22;16076;51.194;6.642;2022-10-26T14:16:07;21.70;99.90
28969;DHT22;16076;51.194;6.642;2022-10-26T14:18:35;21.60;99.90
28969;DHT22;16076;51.194;6.642;2022-10-26T14:21:10;21.60;99.90
28969;DHT22;16076;51.194;6.642;2022-10-26T14:26:28;21.60;99.90
28969;DHT22;16076;51.194;6.642;2022-10-26T14:28:59;21.60;99.90
28969;DHT22;16076;51.194;6.642;2022-10-26T14:31:30;21.50;99.90
28969;DHT22;16076;51.194;6.642;2022-10-26T14:33:58;21.50;99.90
28969;DHT22;16076;51.194;6.642;2022-10-26T14:39:35;21.40;99.90
28969;DHT22;16076;51.194;6.642;2022-10-26T14:42:02;21.40;99.90
28969;DHT22;16076;51.194;6.642;2022-10-26T14:44:35;21.30;99.90
28969;DHT22;16076;51.194;6.642;2022-10-26T14:47:04;21.30;99.90
28969;DHT22;16076;51.194;6.642;2022-10-26T14:49:37;21.30;99.90
28969;DHT22;16076;51.194;6.642;2022-10-26T14:52:15;21.20;99.90
28969;DHT22;16076;51.194;6.642;2022-10-26T14:55:02;21.20;99.90
28969;DHT22;16076;51.194;6.642;2022-10-26T14:57:39;21.20;99.90
28969;DHT22;16076;51.194;6.642;2022-10-26T15:02:38;21.20;99.90
28969;DHT22;16076;51.194;6.642;2022-10-26T15:07:52;21.20;99.90
28969;DHT22;16076;51.194;6.642;2022-10-26T15:10:47;21.10;99.90
28969;DHT22;16076;51.194;6.642;2022-10-26T15:13:32;21.00;99.90
28969;DHT22;16076;51.194;6.642;2022-10-26T15:16:25;21.00;99.90
28969;DHT22;16076;51.194;6.642;2022-10-26T15:19:14;21.00;99.90
28969;DHT22;16076;51.194;6.642;2022-10-26T15:21:46;20.80;99.90
28969;DHT22;16076;51.194;6.642;2022-10-26T15:26:47;20.60;99.90
28969;DHT22;16076;51.194;6.642;2022-10-26T15:29:36;20.60;99.90
28969;DHT22;16076;51.194;6.642;2022-10-26T15:32:03;20.40;99.90
28969;DHT22;16076;51.194;6.642;2022-10-26T15:34:32;20.40;99.90
28969;DHT22;16076;51.194;6.642;2022-10-26T15:37:01;20.30;99.90
28969;DHT22;16076;51.194;6.642;2022-10-26T15:39:27;20.20;99.90
28969;DHT22;16076;51.194;6.642;2022-10-26T15:41:53;20.10;99.90
28969;DHT22;16076;51.194;6.642;2022-10-26T15:44:21;20.10;99.90
28969;DHT22;16076;51.194;6.642;2022-10-26T15:46:48;20.00;99.90
28969;DHT22;16076;51.194;6.642;2022-10-26T15:49:20;19.90;99.90
28969;DHT22;16076;51.194;6.642;2022-10-26T15:51:49;19.80;99.90
28969;DHT22;16076;51.194;6.642;2022-10-26T15:54:17;19.70;99.90
28969;DHT22;16076;51.194;6.642;2022-10-26T15:56:43;19.50;99.90
28969;DHT22;16076;51.194;6.642;2022-10-26T15:59:15;19.50;99.90
28969;DHT22;16076;51.194;6.642;2022-10-26T16:01:41;19.30;99.90
28969;DHT22;16076;51.194;6.642;2022-10-26T16:04:08;19.20;99.90
28969;DHT22;16076;51.194;6.642;2022-10-26T16:06:36;19.10;99.90
28969;DHT22;16076;51.194;6.642;2022-10-26T16:09:05;19.00;99.90
28969;DHT22;16076;51.194;6.642;2022-10-26T16:11:31;18.90;99.90
28969;DHT22;16076;51.194;6.642;2022-10-26T16:13:58;18.80;99.90
28969;DHT22;16076;51.194;6.642;2022-10-26T16:16:24;18.70;99.90
28969;DHT22;16076;51.194;6.642;2022-10-26T16:18:56;18.60;99.90
28969;DHT22;16076;51.194;6.642;2022-10-26T16:21:23;18.40;99.90
28969;DHT22;16076;51.194;6.642;2022-10-26T16:23:54;18.30;99.90
28969;DHT22;16076;51.194;6.642;2022-10-26T16:26:20;18.20;99.90
28969;DHT22;16076;51.194;6.642;2022-10-26T16:28:46;18.10;99.90
28969;DHT22;16076;51.194;6.642;2022-10-26T16:31:14;18.00;99.90
28969;DHT22;16076;51.194;6.642;2022-10-26T16:33:43;17.90;99.90
28969;DHT22;16076;51.194;6.642;2022-10-26T16:36:11;17.80;99.90
28969;DHT22;16076;51.194;6.642;2022-10-26T16:38:37;17.70;99.90
28969;DHT22;16076;51.194;6.642;2022-10-26T16:41:12;17.60;99.90
28969;DHT22;16076;51.194;6.642;2022-10-26T16:43:40;17.50;99.90
28969;DHT22;16076;51.194;6.642;2022-10-26T16:46:07;17.40;99.90
28969;DHT22;16076;51.194;6.642;2022-10-26T16:48:37;17.40;99.90
28969;DHT22;16076;51.194;6.642;2022-10-26T16:51:07;17.30;99.90
28969;DHT22;16076;51.194;6.642;2022-10-26T16:53:34;17.20;99.90
28969;DHT22;16076;51.194;6.642;2022-10-26T16:56:11;17.20;99.90
28969;DHT22;16076;51.194;6.642;2022-10-26T16:58:38;17.20;99.90
28969;DHT22;16076;51.194;6.642;2022-10-26T17:01:05;17.20;99.90
28969;DHT22;16076;51.194;6.642;2022-10-26T17:03:31;17.20;99.90
28969;DHT22;16076;51.194;6.642;2022-10-26T17:06:02;17.20;99.90
28969;DHT22;16076;51.194;6.642;2022-10-26T17:08:30;17.30;99.90
28969;DHT22;16076;51.194;6.642;2022-10-26T17:11:07;17.30;99.90
28969;DHT22;16076;51.194;6.642;2022-10-26T17:13:39;17.30;99.90
28969;DHT22;16076;51.194;6.642;2022-10-26T17:16:08;17.40;99.90
28969;DHT22;16076;51.194;6.642;2022-10-26T17:18:35;17.40;99.90
28969;DHT22;16076;51.194;6.642;2022-10-26T17:21:03;17.40;99.90
28969;DHT22;16076;51.194;6.642;2022-10-26T17:23:29;17.30;99.90
28969;DHT22;16076;51.194;6.642;2022-10-26T17:26:02;17.30;99.90
28969;DHT22;16076;51.194;6.642;2022-10-26T17:28:31;17.30;99.90
28969;DHT22;16076;51.194;6.642;2022-10-26T17:31:06;17.30;99.90
28969;DHT22;16076;51.194;6.642;2022-10-26T17:33:33;17.30;99.90
28969;DHT22;16076;51.194;6.642;2022-10-26T17:36:01;17.40;99.90
28969;DHT22;16076;51.194;6.642;2022-10-26T17:38:33;17.40;99.90
28969;DHT22;16076;51.194;6.642;2022-10-26T17:41:07;17.40;99.90
28969;DHT22;16076;51.194;6.642;2022-10-26T17:43:35;17.50;99.90
28969;DHT22;16076;51.194;6.642;2022-10-26T17:46:03;17.50;99.90
28969;DHT22;16076;51.194;6.642;2022-10-26T17:48:30;17.60;99.90
28969;DHT22;16076;51.194;6.642;2022-10-26T17:51:01;17.60;99.90
28969;DHT22;16076;51.194;6.642;2022-10-26T17:53:30;17.70;99.90
28969;DHT22;16076;51.194;6.642;2022-10-26T17:58:39;17.70;99.90
28969;DHT22;16076;51.194;6.642;2022-10-26T18:01:09;17.60;99.90
28969;DHT22;16076;51.194;6.642;2022-10-26T18:03:38;17.50;99.90
28969;DHT22;16076;51.194;6.642;2022-10-26T18:06:06;17.40;99.90
28969;DHT22;16076;51.194;6.642;2022-10-26T18:08:36;17.20;99.90
28969;DHT22;16076;51.194;6.642;2022-10-26T18:11:03;17.10;99.90
28969;DHT22;16076;51.194;6.642;2022-10-26T18:13:30;17.10;99.90
28969;DHT22;16076;51.194;6.642;2022-10-26T18:18:28;17.00;99.90
28969;DHT22;16076;51.194;6.642;2022-10-26T18:21:03;17.00;99.90
28969;DHT22;16076;51.194;6.642;2022-10-26T18:23:29;17.00;99.90
28969;DHT22;16076;51.194;6.642;2022-10-26T18:26:12;17.10;99.90
28969;DHT22;16076;51.194;6.642;2022-10-26T18:28:38;17.00;99.90
28969;DHT22;16076;51.194;6.642;2022-10-26T18:31:05;17.00;99.90
28969;DHT22;16076;51.194;6.642;2022-10-26T18:33:32;16.90;99.90
28969;DHT22;16076;51.194;6.642;2022-10-26T18:38:34;16.70;99.90
28969;DHT22;16076;51.194;6.642;2022-10-26T18:41:01;16.60;99.90
28969;DHT22;16076;51.194;6.642;2022-10-26T18:43:28;16.50;99.90
28969;DHT22;16076;51.194;6.642;2022-10-26T18:46:04;16.50;99.90
28969;DHT22;16076;51.194;6.642;2022-10-26T18:48:31;16.40;99.90
28969;DHT22;16076;51.194;6.642;2022-10-26T18:51:01;16.30;99.90
28969;DHT22;16076;51.194;6.642;2022-10-26T18:53:27;16.30;99.90